This is the latest recevied weather packets stored in our database for station/object K7SKM. If no packets are shown the sender has not sent any weather packets the latest 10 day(s).
| Time | Temp. | Humidity | Pressure | Rain* | Wind** | Luminosity | Snow |
|---|---|---|---|---|---|---|---|
| 1788113187 | 20.56° C | 55% | 1025.3 hPa | 0 mm | - | 274 W/m² | - |
| 1788112887 | 20° C | 57% | 1025.2 hPa | 0 mm | - | 287 W/m² | - |
| 1788112586 | 18.89° C | 57% | 1025.3 hPa | 0 mm | - | 173 W/m² | - |
| 1788112281 | 18.89° C | 59% | 1025.2 hPa | 0 mm | - | 255 W/m² | - |
| 1788111977 | 18.33° C | 60% | 1025.5 hPa | 0 mm | - | 215 W/m² | - |
| 1788111672 | 18.33° C | 60% | 1025.4 hPa | 0 mm | - | 221 W/m² | - |
| 1788111367 | 17.78° C | 61% | 1025.3 hPa | 0 mm | - | 170 W/m² | - |
| 1788111062 | 17.78° C | 61% | 1025.2 hPa | 0 mm | - | 190 W/m² | - |
| 1788110759 | 17.78° C | 60% | 1025.2 hPa | 0 mm | - | 147 W/m² | - |
| 1788110455 | 18.89° C | 59% | 1025.5 hPa | 0 mm | - | 224 W/m² | - |
| 1788110150 | 17.78° C | 61% | 1025.2 hPa | 0 mm | - | 166 W/m² | - |
| 1788109845 | 17.22° C | 62% | 1025.2 hPa | 0 mm | - | 187 W/m² | - |
| 1788109544 | 17.22° C | 63% | 1025.4 hPa | 0 mm | - | 222 W/m² | - |
| 1788109244 | 17.78° C | 61% | 1025.2 hPa | 0 mm | - | 152 W/m² | - |
| 1788108939 | 17.78° C | 61% | 1025.2 hPa | 0 mm | - | 193 W/m² | - |
| 1788108635 | 17.78° C | 62% | 1025.3 hPa | 0 mm | - | 159 W/m² | - |
| 1788108331 | 17.22° C | 63% | 1025.1 hPa | 0 mm | - | 157 W/m² | - |
| 1788108027 | 16.67° C | 66% | 1025 hPa | 0 mm | - | 124 W/m² | - |
| 1788107723 | 16.11° C | 66% | 1025.2 hPa | 0 mm | - | 106 W/m² | - |
| 1788107423 | 16.67° C | 65% | 1025.1 hPa | 0 mm | - | 103 W/m² | - |
| 1788107119 | 17.22° C | 64% | 1025.4 hPa | 0 mm | - | 107 W/m² | - |
| 1788106819 | 17.22° C | 63% | 1025.1 hPa | 0 mm | - | 124 W/m² | - |
| 1788106522 | 17.22° C | 63% | 1025.2 hPa | 0 mm | - | 159 W/m² | - |
| 1788106208 | 16.67° C | 66% | 1025.4 hPa | 0 mm | - | 149 W/m² | - |
| 1788105904 | 16.11° C | 67% | 1025.6 hPa | 0 mm | - | 102 W/m² | - |
* Rain latest hour (hover to see other rain measurements)
** Current wind speed in m/s (hover to see current wind gust speed)